Norwegian Spirit — C6TQ6 — position and weather

sailwx.info

Track history (hours):
 
Tides and Currents Weather Stations Pressure Air Temp Water Temp Dewpoint Dewpoint Depression Visibility Wind Speed Wind Dir Waves Ship Positions

Norwegian Spirit

Operator: Norwegian Cruise Line

Last reported at 2017-Aug-22 18:25 UTC. Time now 2017-Aug-22 22:29 UTC.
Position N 38°57' E 009°28'.

Type: Passenger vessel. MMSI: 311746000.

Date/timePositionNaut miles runAvg speedWind from/ knotsBaromVisibWave heightAir tempDewpointWater temp
2017-Aug-22 18:25N 38°57' E 009°28'920.6
2017-Aug-22 17:59N 39°02' E 009°19'1020.4
2017-Aug-22 17:29N 39°08' E 009°08'4 8.9
2017-Aug-22 17:00N 39°12' E 009°07'0 0.6
2017-Aug-22 16:28N 39°13' E 009°06'0 0.0
2017-Aug-22 15:58N 39°13' E 009°06'0 0.0
2017-Aug-22 15:28N 39°13' E 009°06'0 0.0
2017-Aug-22 14:55N 39°13' E 009°06'0 0.0
2017-Aug-22 14:28N 39°13' E 009°06'0 0.0
2017-Aug-22 13:58N 39°13' E 009°06'0 0.0
2017-Aug-22 13:28N 39°13' E 009°06'0 0.0
2017-Aug-22 12:58N 39°13' E 009°06'0 0.0
2017-Aug-22 12:28N 39°13' E 009°06'0 0.0
2017-Aug-22 11:58N 39°13' E 009°06'0 0.0
2017-Aug-22 11:28N 39°13' E 009°06'0 0.0
2017-Aug-22 10:58N 39°13' E 009°06'0 0.0
2017-Aug-22 10:28N 39°13' E 009°06'0 0.0
2017-Aug-22 09:58N 39°13' E 009°06'0 0.0
2017-Aug-22 09:28N 39°13' E 009°06'0 0.2
2017-Aug-22 09:00N 39°12' E 009°06'4 7.8
2017-Aug-22 08:30N 39°09' E 009°07'816.8
2017-Aug-22 08:00N 39°03' E 009°16'917.9
2017-Aug-22 07:30N 38°60' E 009°26'816.7
2017-Aug-22 07:00N 39°01' E 009°37'5618.7
2017-Aug-22 04:00N 39°54' E 010°00'1918.6 330 / 171024.010.8 25.0
2017-Aug-22 03:00N 40°12' E 010°06'6622.1 010 / 181024.010.8 25.0
2017-Aug-22 00:00N 41°18' E 010°00'6622.1 030 / 151024.010.8 28.020.924.0
2017-Aug-21 21:00N 42°24' E 009°54'1023.7 360 / 101018.010.8 24.620.9
2017-Aug-21 20:33N 42°34' E 009°55'722.3
2017-Aug-21 20:15N 42°41' E 009°56'622.0
2017-Aug-21 20:00N 42°47' E 009°56'5499.5
2017-Aug-21 20:00N 42°42' E 009°54'1632.1 360 / 101018.010.8 24.620.9
2017-Aug-21 19:31N 42°57' E 009°59'1121.5
2017-Aug-21 19:00N 43°07' E 010°03'1121.4
2017-Aug-21 18:31N 43°18' E 010°07'1121.2
2017-Aug-21 18:01N 43°28' E 010°11'611.7
2017-Aug-21 17:30N 43°32' E 010°16'1 2.6
2017-Aug-21 17:00N 43°33' E 010°18'0 0.0
2017-Aug-21 16:30N 43°33' E 010°18'0 0.0
2017-Aug-21 16:00N 43°33' E 010°18'0 0.0
2017-Aug-21 15:30N 43°33' E 010°18'0 0.0
2017-Aug-21 15:00N 43°33' E 010°18'0 0.0
2017-Aug-21 14:30N 43°33' E 010°18'0 0.0
2017-Aug-21 14:00N 43°33' E 010°18'3816.9
2017-Aug-21 14:00N 43°30' E 010°18'3 6.4 290 / 171024.010.8 27.021.325.0
2017-Aug-21 13:30N 43°33' E 010°18'0 0.0
2017-Aug-21 13:00N 43°33' E 010°18'3816.9
2017-Aug-21 13:00N 43°30' E 010°18'3 5.3 290 / 171024.010.8 27.021.325.0
2017-Aug-21 12:24N 43°33' E 010°18'0 0.0
2017-Aug-21 11:54N 43°33' E 010°18'0 0.0
2017-Aug-21 11:30N 43°33' E 010°18'0 0.0
2017-Aug-21 11:00N 43°33' E 010°18'0 0.0
2017-Aug-21 10:30N 43°33' E 010°18'0 0.0
2017-Aug-21 10:00N 43°33' E 010°18'0 0.0
2017-Aug-21 09:30N 43°33' E 010°18'0 0.0
2017-Aug-21 09:00N 43°33' E 010°18'0 0.0
2017-Aug-21 08:30N 43°33' E 010°18'0 0.0
2017-Aug-21 08:00N 43°33' E 010°18'0 0.0
2017-Aug-21 07:30N 43°33' E 010°18'0 0.0
2017-Aug-21 07:00N 43°33' E 010°18'0 0.0
2017-Aug-21 06:30N 43°33' E 010°18'0 0.0
2017-Aug-21 06:00N 43°33' E 010°18'0 0.0
2017-Aug-21 05:30N 43°33' E 010°18'0 0.0
2017-Aug-21 05:00N 43°33' E 010°18'0 0.1
2017-Aug-21 04:30N 43°33' E 010°18'2 4.8
2017-Aug-21 04:00N 43°31' E 010°15'5 9.7
2017-Aug-21 03:30N 43°27' E 010°12'611.3
2017-Aug-21 03:00N 43°22' E 010°11'611.6
2017-Aug-21 02:30N 43°16' E 010°09'711.5
2017-Aug-21 01:56N 43°09' E 010°07'512.2
2017-Aug-21 01:30N 43°04' E 010°06'612.4
2017-Aug-21 01:00N 42°58' E 010°04'4297.2
2017-Aug-21 01:00N 43°00' E 010°00'1212.0 080 / 251024.027.0 25.013.925.0
2017-Aug-21 00:00N 42°48' E 010°00'1914.7 080 / 251024.027.0 25.013.925.0
2017-Aug-20 22:43N 42°34' E 010°17'312.2
2017-Aug-20 22:30N 42°32' E 010°19'612.1
2017-Aug-20 22:00N 42°27' E 010°24'612.6
2017-Aug-20 21:30N 42°22' E 010°29'1612.0
2017-Aug-20 20:08N 42°08' E 010°40'212.2
2017-Aug-20 19:59N 42°07' E 010°43'61 3.2
2017-Aug-20 01:00N 41°36' E 011°54'1318.2 240 / 151020.010.8 30.019.926.0
2017-Aug-20 00:17N 41°30' E 012°09'517.0
2017-Aug-20 00:00N 41°26' E 012°14'3406.3
2017-Aug-20 00:00N 41°24' E 012°12'816.4 120 / 61021.010.8 30.019.926.0
2017-Aug-19 23:31N 41°20' E 012°21'916.7
2017-Aug-19 23:00N 41°15' E 012°30'816.6
2017-Aug-19 22:31N 41°11' E 012°40'916.9
2017-Aug-19 22:00N 41°08' E 012°51'1216.6
2017-Aug-19 21:17N 41°03' E 013°05'516.5
2017-Aug-19 21:01N 41°01' E 013°10'3198.4
2017-Aug-19 21:00N 41°00' E 013°06'1121.9 270 / 51016.0 5.4 25.723.3
2017-Aug-19 20:31N 40°57' E 013°19'816.6
2017-Aug-19 20:01N 40°52' E 013°29'5323.9
2017-Aug-19 20:00N 40°48' E 013°24'1019.9 270 / 51016.010.8 26.824.6
2017-Aug-19 19:31N 40°47' E 013°37'816.4
2017-Aug-19 19:01N 40°41' E 013°45'816.3
2017-Aug-19 18:30N 40°37' E 013°54'816.4
2017-Aug-19 18:01N 40°39' E 014°04'3183.5
2017-Aug-19 18:00N 40°42' E 014°06'511.2 270 / 81022.0
2017-Aug-19 17:31N 40°45' E 014°12'612.4
2017-Aug-19 17:00N 40°50' E 014°16'0 0.6
2017-Aug-19 16:30N 40°50' E 014°16'0 0.0
2017-Aug-19 15:57N 40°50' E 014°16'0 0.0
2017-Aug-19 15:30N 40°50' E 014°16'4 6.9
2017-Aug-19 15:00N 40°48' E 014°12'414.9 220 / 121024.010.8 29.020.427.0
2017-Aug-19 14:45N 40°50' E 014°16'0 0.0
2017-Aug-19 13:57N 40°50' E 014°16'0 0.0
2017-Aug-19 13:27N 40°50' E 014°16'0 0.0
2017-Aug-19 13:00N 40°50' E 014°16'4304.2
2017-Aug-19 13:00N 40°48' E 014°12'4 7.3 220 / 121024.010.8 29.020.427.0
2017-Aug-19 12:30N 40°50' E 014°16'0 0.0
2017-Aug-19 12:00N 40°50' E 014°16'4304.2
2017-Aug-19 12:00N 40°48' E 014°12'4 7.3 220 / 121024.010.8 29.020.427.0
2017-Aug-19 11:30N 40°50' E 014°16'0 0.0
2017-Aug-19 11:00N 40°50' E 014°16'0 0.0
2017-Aug-19 10:27N 40°50' E 014°16'0 0.0
2017-Aug-19 10:00N 40°50' E 014°16'0 0.0
2017-Aug-19 09:15N 40°50' E 014°16'0 0.0
2017-Aug-19 08:57N 40°50' E 014°16'0 0.0
2017-Aug-19 08:30N 40°50' E 014°16'0 0.0
2017-Aug-19 08:00N 40°50' E 014°16'0 0.0
2017-Aug-19 07:30N 40°50' E 014°16'0 0.0
2017-Aug-19 07:00N 40°50' E 014°16'0 0.0
2017-Aug-19 05:18N 40°50' E 014°16'0 0.0
2017-Aug-19 05:00N 40°50' E 014°16'0 0.9
2017-Aug-19 04:30N 40°50' E 014°16'3 5.0
2017-Aug-19 04:00N 40°48' E 014°17'510.1
2017-Aug-19 03:30N 40°43' E 014°17'714.6
2017-Aug-19 03:00N 40°35' E 014°17'714.7
2017-Aug-19 02:30N 40°29' E 014°21'815.2
2017-Aug-19 02:00N 40°22' E 014°25'1415.1
2017-Aug-19 01:06N 40°09' E 014°33'214.3
2017-Aug-19 00:56N 40°07' E 014°34'614.6
2017-Aug-19 00:30N 40°02' E 014°38'714.9
2017-Aug-19 00:00N 39°55' E 014°42'161.1
2017-Aug-19 00:00N 39°54' E 014°42'713.7 180 / 51023.010.8 29.020.426.0
2017-Aug-18 23:30N 39°48' E 014°46'815.1
2017-Aug-18 23:00N 39°41' E 014°50'2243.8
2017-Aug-18 23:00N 39°42' E 014°48'1417.2 180 / 51023.010.8 29.020.426.0
2017-Aug-18 22:12N 39°30' E 014°57'315.1
2017-Aug-18 22:00N 39°27' E 014°58'815.2
2017-Aug-18 21:30N 39°21' E 015°03'815.3
2017-Aug-18 21:00N 39°14' E 015°07'815.3
2017-Aug-18 20:30N 39°07' E 015°12'815.2
2017-Aug-18 20:00N 39°00' E 015°17'191365.1
2017-Aug-18 20:00N 38°42' E 015°24'1223.9 050 / 31018.010.8 28.024.6
2017-Aug-18 19:30N 38°54' E 015°21'815.1
2017-Aug-18 19:00N 38°47' E 015°26'815.4
2017-Aug-18 18:30N 38°40' E 015°31'815.3
2017-Aug-18 18:00N 38°33' E 015°34'815.2
2017-Aug-18 17:30N 38°27' E 015°39'815.5
2017-Aug-18 17:00N 38°20' E 015°44'713.2
2017-Aug-18 16:30N 38°15' E 015°38'5 9.3
2017-Aug-18 15:59N 38°12' E 015°33'0 0.0
2017-Aug-18 15:30N 38°12' E 015°33'0 0.0
2017-Aug-18 15:00N 38°12' E 015°33'0 0.0
2017-Aug-18 14:30N 38°12' E 015°33'0 0.0
2017-Aug-18 13:24N 38°12' E 015°33'0 0.0
2017-Aug-18 08:39N 38°12' E 015°33'0 0.0
2017-Aug-18 08:24N 38°12' E 015°33'0 0.0
2017-Aug-18 08:00N 38°12' E 015°33'0 0.0
2017-Aug-18 07:30N 38°12' E 015°33'0 0.0
2017-Aug-18 06:57N 38°12' E 015°33'0 0.0
2017-Aug-18 06:30N 38°12' E 015°33'0 0.0
2017-Aug-18 05:54N 38°12' E 015°33'0 0.0
2017-Aug-18 05:30N 38°12' E 015°33'0 0.0
2017-Aug-18 05:00N 38°12' E 015°34'2 4.5
2017-Aug-18 04:30N 38°12' E 015°36'816.1
2017-Aug-18 04:01N 38°04' E 015°36'816.7
2017-Aug-18 03:31N 37°56' E 015°35'815.4
2017-Aug-18 03:01N 37°48' E 015°36'815.5
2017-Aug-18 02:30N 37°41' E 015°36'815.8
2017-Aug-18 02:00N 37°33' E 015°36'815.8
2017-Aug-18 01:30N 37°25' E 015°37'815.0
2017-Aug-18 01:00N 37°17' E 015°37'1777.6
2017-Aug-18 01:00N 37°18' E 015°36'817.2 360 / 191022.010.8 29.018.827.0
2017-Aug-18 00:30N 37°10' E 015°37'714.8
2017-Aug-18 00:00N 37°02' E 015°38'4262.9
2017-Aug-18 00:00N 37°06' E 015°36'1123.3 360 / 191022.010.8 29.018.827.0
2017-Aug-17 23:31N 36°55' E 015°38'815.2
2017-Aug-17 23:00N 36°48' E 015°34'7766.4
2017-Aug-17 23:00N 36°54' E 015°30'1327.1 360 / 131022.010.8 27.021.326.0
2017-Aug-17 22:31N 36°41' E 015°30'816.1
2017-Aug-17 22:00N 36°34' E 015°25'815.7
2017-Aug-17 21:30N 36°27' E 015°19'815.8
2017-Aug-17 21:00N 36°22' E 015°12'815.8
2017-Aug-17 20:30N 36°16' E 015°05'815.8
2017-Aug-17 20:00N 36°11' E 014°58'816.0
2017-Aug-17 19:30N 36°07' E 014°49'816.2
2017-Aug-17 19:01N 36°02' E 014°42'815.8
2017-Aug-17 18:30N 35°56' E 014°35'4 8.1
2017-Aug-17 17:59N 35°54' E 014°31'0 0.0
2017-Aug-17 17:29N 35°54' E 014°31'0 0.0
2017-Aug-17 16:56N 35°54' E 014°31'0 0.0
2017-Aug-17 15:14N 35°54' E 014°31'0 0.0
2017-Aug-17 14:59N 35°54' E 014°31'0 0.0
2017-Aug-17 14:29N 35°54' E 014°31'0 0.0
2017-Aug-17 13:56N 35°54' E 014°31'0 0.0
2017-Aug-17 13:20N 35°54' E 014°31'0 0.0
2017-Aug-17 12:59N 35°54' E 014°31'0 0.0
2017-Aug-17 12:29N 35°54' E 014°31'0 0.0
2017-Aug-17 11:53N 35°54' E 014°31'0 0.0
2017-Aug-17 11:23N 35°54' E 014°31'0 0.0
2017-Aug-17 10:59N 35°54' E 014°31'0 0.1
2017-Aug-17 09:28N 35°53' E 014°31'2 3.8
2017-Aug-17 09:00N 35°55' E 014°32'713.1
2017-Aug-17 08:30N 36°01' E 014°30'817.2
2017-Aug-17 08:01N 36°07' E 014°22'917.5
2017-Aug-17 07:30N 36°12' E 014°14'917.3
2017-Aug-17 07:00N 36°17' E 014°05'917.3
2017-Aug-17 06:30N 36°22' E 013°56'917.4
2017-Aug-17 06:01N 36°27' E 013°48'917.5
2017-Aug-17 05:31N 36°32' E 013°39'917.7
2017-Aug-17 05:01N 36°38' E 013°30'8448.4
2017-Aug-17 05:00N 36°30' E 013°30'1531.1 280 / 51024.027.0 28.020.926.0
2017-Aug-17 04:31N 36°44' E 013°22'1121.1
2017-Aug-17 04:00N 36°49' E 013°11'1121.5
2017-Aug-17 03:30N 36°55' E 012°59'1121.6
2017-Aug-17 03:00N 37°01' E 012°48'183.2
2017-Aug-17 03:00N 37°00' E 012°48'1123.1 310 / 21024.027.0 28.020.926.0
2017-Aug-17 02:30N 37°07' E 012°37'1121.6
2017-Aug-17 02:00N 37°14' E 012°26'1020.9
2017-Aug-17 01:31N 37°20' E 012°16'1120.8
2017-Aug-17 01:00N 37°27' E 012°06'3390.9
2017-Aug-17 01:00N 37°24' E 012°06'1224.7 060 / 101023.027.0 29.018.829.0
2017-Aug-17 00:30N 37°32' E 011°55'1121.0
2017-Aug-17 00:00N 37°36' E 011°42'921.9 130 / 101024.027.0 29.018.829.0
2017-Aug-16 23:34N 37°43' E 011°35'220.9
2017-Aug-16 23:29N 37°44' E 011°33'1020.9
2017-Aug-16 23:00N 37°50' E 011°23'2272.3
2017-Aug-16 23:00N 37°48' E 011°24'1325.7 050 / 91024.027.0 29.020.426.0
2017-Aug-16 22:30N 37°56' E 011°12'1120.9
2017-Aug-16 21:58N 38°03' E 011°01'1020.9
2017-Aug-16 21:31N 38°09' E 010°51'1223.7
2017-Aug-16 21:00N 38°12' E 010°36'571.0 140 / 51018.010.8 26.021.7
2017-Aug-16 20:55N 38°16' E 010°39'1020.7
2017-Aug-16 20:27N 38°22' E 010°29'2120.5
2017-Aug-16 19:27N 38°35' E 010°08'1120.2
2017-Aug-16 18:54N 38°41' E 009°56'920.5
2017-Aug-16 18:29N 38°46' E 009°47'1020.5
2017-Aug-16 18:00N 38°52' E 009°37'6386.7
2017-Aug-16 18:00N 38°54' E 009°30'510.0 150 / 71024.0
2017-Aug-16 17:30N 38°58' E 009°26'1020.9
2017-Aug-16 17:00N 39°04' E 009°16'816.7
2017-Aug-16 16:30N 39°09' E 009°07'3 6.4
2017-Aug-16 15:59N 39°13' E 009°06'0 0.0
2017-Aug-16 15:29N 39°13' E 009°06'0 0.0
2017-Aug-16 14:59N 39°13' E 009°06'0 0.0
2017-Aug-16 14:29N 39°13' E 009°06'0 0.0
2017-Aug-16 13:59N 39°13' E 009°06'0 0.0
2017-Aug-16 13:29N 39°13' E 009°06'0 0.0
2017-Aug-16 12:59N 39°12' E 009°06'0 0.0
2017-Aug-16 12:29N 39°12' E 009°06'0 0.0
2017-Aug-16 11:59N 39°13' E 009°06'0 0.0
2017-Aug-16 11:29N 39°13' E 009°06'0 0.0
2017-Aug-16 10:59N 39°13' E 009°06'0 0.0
2017-Aug-16 10:29N 39°13' E 009°06'0 0.0
2017-Aug-16 09:59N 39°13' E 009°06'0 0.0
2017-Aug-16 09:29N 39°13' E 009°06'0 0.0
2017-Aug-16 08:59N 39°13' E 009°06'0 0.0
2017-Aug-16 08:29N 39°13' E 009°06'0 0.0
2017-Aug-16 07:59N 39°13' E 009°06'0 0.0
2017-Aug-16 07:29N 39°12' E 009°06'1 1.1
2017-Aug-16 07:00N 39°12' E 009°07'4 7.8
2017-Aug-16 06:30N 39°08' E 009°07'917.3
2017-Aug-16 06:00N 38°60' E 009°08'1020.3
2017-Aug-16 05:30N 38°52' E 008°60'1020.1
2017-Aug-16 05:00N 38°45' E 008°50'1220.1
2017-Aug-16 04:26N 38°43' E 008°35'920.4
2017-Aug-16 04:00N 38°42' E 008°24'1320.6
2017-Aug-16 03:22N 38°41' E 008°07'1231.8
2017-Aug-16 03:00N 38°36' E 007°54'819.1 090 / 171024.010.8 25.022.226.0
2017-Aug-16 02:34N 38°42' E 007°46'120.2
2017-Aug-16 02:30N 38°42' E 007°45'2616.9
2017-Aug-16 01:00N 38°42' E 007°12'2323.4 090 / 211025.010.8 29.020.426.0
2017-Aug-16 00:00N 38°42' E 006°42'2123.1 090 / 211025.010.8 29.020.426.0
2017-Aug-15 23:05N 38°48' E 006°16'112.6
2017-Aug-15 23:00N 38°48' E 006°18'3372.5 090 / 211024.010.8 29.020.426.0
2017-Aug-15 22:59N 38°48' E 006°14'919.8
2017-Aug-15 22:30N 38°49' E 006°02'1019.9
2017-Aug-15 22:01N 38°50' E 005°49'1019.9
2017-Aug-15 21:30N 38°51' E 005°36'1020.1
2017-Aug-15 21:00N 38°52' E 005°23'6393.9
2017-Aug-15 21:00N 38°48' E 005°18'815.5 090 / 201018.0 2.2 26.525.8
2017-Aug-15 20:30N 38°53' E 005°10'1020.5
2017-Aug-15 20:00N 38°54' E 004°57'1020.7
2017-Aug-15 19:30N 38°54' E 004°44'1020.5
2017-Aug-15 19:00N 38°55' E 004°31'1020.5
2017-Aug-15 18:30N 38°56' E 004°18'1020.7
2017-Aug-15 18:00N 38°57' E 004°05'1020.7
2017-Aug-15 17:30N 38°58' E 003°51'1020.7
2017-Aug-15 17:00N 38°59' E 003°38'8506.2
2017-Aug-15 17:00N 38°54' E 003°30'714.5 090 / 201023.010.8 27.0
2017-Aug-15 16:30N 38°60' E 003°25'1020.4
2017-Aug-15 16:01N 39°01' E 003°12'145.3
2017-Aug-15 16:00N 39°00' E 003°12'1021.3 090 / 191023.010.8 27.0
2017-Aug-15 15:30N 39°02' E 002°59'918.9
2017-Aug-15 15:00N 39°07' E 002°49'1020.2
2017-Aug-15 14:30N 39°16' E 002°44'1019.7
2017-Aug-15 14:00N 39°26' E 002°40'815.6
2017-Aug-15 13:30N 39°33' E 002°39'1 1.8
2017-Aug-15 13:00N 39°33' E 002°38'0 0.0
2017-Aug-15 12:30N 39°33' E 002°38'0 0.0
2017-Aug-15 12:00N 39°33' E 002°38'0 0.0
2017-Aug-15 11:30N 39°33' E 002°38'0 0.0
2017-Aug-15 11:00N 39°33' E 002°38'0 0.0
2017-Aug-15 10:30N 39°33' E 002°38'0 0.0
2017-Aug-15 10:00N 39°33' E 002°38'0 0.0
2017-Aug-15 09:30N 39°33' E 002°38'0 0.0
2017-Aug-15 09:00N 39°33' E 002°38'0 0.0
2017-Aug-15 08:30N 39°33' E 002°38'0 0.0
2017-Aug-15 08:00N 39°33' E 002°38'0 0.0
2017-Aug-15 07:30N 39°33' E 002°38'0 0.0
2017-Aug-15 07:00N 39°33' E 002°38'0 0.0
2017-Aug-15 06:30N 39°33' E 002°38'0 0.0
2017-Aug-15 06:00N 39°33' E 002°38'0 0.0
2017-Aug-15 05:30N 39°33' E 002°38'1 2.0
2017-Aug-15 05:00N 39°32' E 002°39'611.6
2017-Aug-15 04:30N 39°27' E 002°35'611.7
2017-Aug-15 04:00N 39°24' E 002°28'611.2
2017-Aug-15 03:30N 39°26' E 002°21'510.9
2017-Aug-15 03:00N 39°29' E 002°16'6629.1
2017-Aug-15 03:00N 39°24' E 002°12'1019.9 050 / 121023.010.8 29.018.827.0
2017-Aug-15 02:30N 39°34' E 002°11'611.8
2017-Aug-15 02:00N 39°40' E 002°11'5336.6
2017-Aug-15 02:00N 39°36' E 002°06'1021.2 180 / 181023.010.8 29.018.827.0
2017-Aug-15 01:30N 39°46' E 002°11'612.0
2017-Aug-15 01:00N 39°52' E 002°11'5522.9
2017-Aug-15 01:00N 39°48' E 002°06'1020.9 180 / 211024.010.8 29.018.827.0
2017-Aug-15 00:30N 39°58' E 002°11'713.8
2017-Aug-15 00:00N 40°04' E 002°11'7478.4
2017-Aug-15 00:00N 40°00' E 002°18'1224.9 100 / 181020.010.8 29.020.426.0
2017-Aug-14 23:30N 40°11' E 002°11'611.4
2017-Aug-14 23:00N 40°17' E 002°10'6534.9
2017-Aug-14 23:00N 40°12' E 002°06'1122.2 100 / 181020.010.8 29.020.426.0
2017-Aug-14 22:30N 40°22' E 002°11'611.9
2017-Aug-14 22:00N 40°28' E 002°11'612.3
2017-Aug-14 21:30N 40°34' E 002°10'712.9
2017-Aug-14 21:00N 40°41' E 002°10'713.3
2017-Aug-14 20:30N 40°48' E 002°10'612.5
2017-Aug-14 20:00N 40°54' E 002°08'2567.3
2017-Aug-14 20:00N 40°54' E 002°06'612.6 100 / 101020.010.8 26.021.7
2017-Aug-14 19:30N 40°60' E 002°08'612.4
2017-Aug-14 19:00N 41°06' E 002°09'2152.6
2017-Aug-14 19:00N 41°06' E 002°06'714.6 100 / 101020.010.8 26.023.2
2017-Aug-14 18:30N 41°12' E 002°10'611.8
2017-Aug-14 18:00N 41°18' E 002°10'3 2.4
2017-Aug-14 16:36N 41°22' E 002°11'0 0.0
2017-Aug-14 16:30N 41°22' E 002°11'0 0.0
2017-Aug-14 15:54N 41°22' E 002°11'0 0.0
2017-Aug-14 15:24N 41°22' E 002°11'0 0.0
2017-Aug-14 13:48N 41°22' E 002°11'0 0.0
2017-Aug-14 13:30N 41°22' E 002°11'0 0.0
2017-Aug-14 13:00N 41°22' E 002°11'0 0.0
2017-Aug-14 12:24N 41°22' E 002°11'0 0.0
2017-Aug-14 11:06N 41°22' E 002°11'0 0.0
2017-Aug-14 10:48N 41°22' E 002°11'0 0.0
2017-Aug-14 10:30N 41°22' E 002°11'0 0.0
2017-Aug-14 09:48N 41°22' E 002°11'0 0.0
2017-Aug-14 09:18N 41°22' E 002°11'0 0.0
2017-Aug-14 08:54N 41°22' E 002°11'0 0.0
2017-Aug-14 08:24N 41°22' E 002°11'0 0.0
2017-Aug-14 08:00N 41°22' E 002°11'0 0.0
2017-Aug-14 07:30N 41°22' E 002°11'0 0.0
2017-Aug-14 07:00N 41°22' E 002°11'0 0.0
2017-Aug-14 06:30N 41°22' E 002°11'0 0.0
2017-Aug-14 05:48N 41°22' E 002°11'0 0.0
2017-Aug-14 05:24N 41°22' E 002°11'0 0.0
2017-Aug-14 04:54N 41°22' E 002°11'0 0.4
2017-Aug-14 04:30N 41°22' E 002°11'3 6.3
2017-Aug-14 03:58N 41°18' E 002°11'611.7
2017-Aug-14 03:30N 41°18' E 002°18'816.9
2017-Aug-14 03:00N 41°23' E 002°27'916.9
2017-Aug-14 02:30N 41°27' E 002°37'816.3
2017-Aug-14 02:00N 41°32' E 002°46'816.1
2017-Aug-14 01:30N 41°36' E 002°55'816.3
2017-Aug-14 01:00N 41°41' E 003°05'61205.2
2017-Aug-14 01:00N 41°36' E 003°00'1327.4 200 / 131024.027.0 29.020.426.0
2017-Aug-14 00:30N 41°45' E 003°13'815.6
2017-Aug-14 00:00N 41°49' E 003°22'8700.3
2017-Aug-14 00:00N 41°42' E 003°18'1429.3 190 / 41024.010.8 28.020.926.0
2017-Aug-13 23:30N 41°53' E 003°30'816.2
2017-Aug-13 23:00N 41°59' E 003°38'8521.1
2017-Aug-13 23:00N 41°54' E 003°30'1734.7 200 / 131021.027.0 29.020.426.0
2017-Aug-13 22:30N 42°05' E 003°47'917.7
2017-Aug-13 22:00N 42°12' E 003°55'917.3
2017-Aug-13 21:30N 42°18' E 004°03'917.5
2017-Aug-13 21:00N 42°25' E 004°11'151016.2
2017-Aug-13 21:00N 42°36' E 004°24'613.0 200 / 101018.010.8 24.019.618.0
2017-Aug-13 20:30N 42°31' E 004°19'917.6
2017-Aug-13 20:00N 42°37' E 004°27'15946.5
2017-Aug-13 20:00N 42°48' E 004°42'613.2 200 / 101018.010.8 24.019.6
2017-Aug-13 19:30N 42°44' E 004°36'917.2
2017-Aug-13 19:01N 42°50' E 004°44'917.0
2017-Aug-13 18:30N 42°56' E 004°52'917.1
2017-Aug-13 18:00N 43°02' E 004°59'917.4
2017-Aug-13 17:30N 43°09' E 005°07'817.0
2017-Aug-13 17:01N 43°17' E 005°11'713.0
2017-Aug-13 16:30N 43°21' E 005°18'2 3.1
2017-Aug-13 16:00N 43°21' E 005°20'0 0.0
2017-Aug-13 15:30N 43°21' E 005°20'0 0.0
2017-Aug-13 14:57N 43°21' E 005°20'0 0.0
2017-Aug-13 14:30N 43°21' E 005°20'0 0.0
2017-Aug-13 14:00N 43°21' E 005°20'0 0.0
2017-Aug-13 13:30N 43°21' E 005°20'0 0.0
2017-Aug-13 13:00N 43°21' E 005°20'0 0.0
2017-Aug-13 12:27N 43°21' E 005°20'0 0.0
2017-Aug-13 12:00N 43°21' E 005°20'0 0.0
2017-Aug-13 11:30N 43°21' E 005°20'0 0.0
2017-Aug-13 11:00N 43°21' E 005°20'0 0.0
2017-Aug-13 10:30N 43°21' E 005°20'0 0.0
2017-Aug-13 10:00N 43°21' E 005°20'0 0.0
2017-Aug-13 09:30N 43°21' E 005°20'0 0.0
2017-Aug-13 09:00N 43°21' E 005°20'0 0.0
2017-Aug-13 08:30N 43°21' E 005°20'0 0.0
2017-Aug-13 08:00N 43°21' E 005°20'0 0.0
2017-Aug-13 07:30N 43°21' E 005°20'0 0.0
2017-Aug-13 07:00N 43°21' E 005°20'0 0.0
2017-Aug-13 06:27N 43°21' E 005°20'0 0.0
2017-Aug-13 06:00N 43°21' E 005°20'0 0.0
2017-Aug-13 05:30N 43°21' E 005°20'1 1.3
2017-Aug-13 05:00N 43°21' E 005°19'5 9.4
2017-Aug-13 04:30N 43°18' E 005°14'611.5
2017-Aug-13 04:00N 43°13' E 005°11'8494.6
2017-Aug-13 04:00N 43°06' E 005°06'612.0 340 / 191022.010.8 19.2 18.0
2017-Aug-13 03:30N 43°07' E 005°14'613.1
2017-Aug-13 03:00N 43°01' E 005°18'5282.1
2017-Aug-13 03:00N 43°00' E 005°12'1019.9 330 / 241022.010.8 19.2 18.0
2017-Aug-13 02:30N 42°56' E 005°24'1112.1
2017-Aug-13 01:33N 42°52' E 005°39'111.7
2017-Aug-13 01:30N 42°52' E 005°39'611.6
2017-Aug-13 01:00N 42°50' E 005°47'611.3
2017-Aug-13 00:30N 42°48' E 005°54'916.6
2017-Aug-13 00:00N 42°48' E 006°06'2 6.2 270 / 191020.010.8 29.020.427.0
2017-Aug-12 23:41N 42°46' E 006°07'311.5
2017-Aug-12 23:25N 42°46' E 006°11'511.5
2017-Aug-12 23:00N 42°46' E 006°18'611.5
2017-Aug-12 22:30N 42°47' E 006°26'611.0
2017-Aug-12 21:56N 42°49' E 006°34'711.4
2017-Aug-12 21:21N 42°55' E 006°38'411.2
2017-Aug-12 21:00N 42°58' E 006°41'611.3
2017-Aug-12 20:30N 43°03' E 006°45'611.4
2017-Aug-12 19:59N 43°08' E 006°48'511.4
2017-Aug-12 19:30N 43°13' E 006°51'611.7
2017-Aug-12 19:00N 43°18' E 006°55'611.6
2017-Aug-12 18:30N 43°24' E 006°57'  
Track history (hours):
 
Tides and Currents Weather Stations Pressure Air Temp Water Temp Dewpoint Dewpoint Depression Visibility Wind Speed Wind Dir Waves Ship Positions

Norwegian Spirit

Operator: Norwegian Cruise Line

Last reported at 2017-Aug-22 18:25 UTC. Time now 2017-Aug-22 22:29 UTC.
Position N 38°57' E 009°28'.

Type: Passenger vessel. MMSI: 311746000.

Date/timePositionNaut miles runAvg speedWind from/ knotsBaromVisibWave heightAir tempDewpointWater temp
2017-Aug-22 18:25N 38°57' E 009°28'920.6
2017-Aug-22 17:59N 39°02' E 009°19'1020.4
2017-Aug-22 17:29N 39°08' E 009°08'4 8.9
2017-Aug-22 17:00N 39°12' E 009°07'0 0.6
2017-Aug-22 16:28N 39°13' E 009°06'0 0.0
2017-Aug-22 15:58N 39°13' E 009°06'0 0.0
2017-Aug-22 15:28N 39°13' E 009°06'0 0.0
2017-Aug-22 14:55N 39°13' E 009°06'0 0.0
2017-Aug-22 14:28N 39°13' E 009°06'0 0.0
2017-Aug-22 13:58N 39°13' E 009°06'0 0.0
2017-Aug-22 13:28N 39°13' E 009°06'0 0.0
2017-Aug-22 12:58N 39°13' E 009°06'0 0.0
2017-Aug-22 12:28N 39°13' E 009°06'0 0.0
2017-Aug-22 11:58N 39°13' E 009°06'0 0.0
2017-Aug-22 11:28N 39°13' E 009°06'0 0.0
2017-Aug-22 10:58N 39°13' E 009°06'0 0.0
2017-Aug-22 10:28N 39°13' E 009°06'0 0.0
2017-Aug-22 09:58N 39°13' E 009°06'0 0.0
2017-Aug-22 09:28N 39°13' E 009°06'0 0.2
2017-Aug-22 09:00N 39°12' E 009°06'4 7.8
2017-Aug-22 08:30N 39°09' E 009°07'816.8
2017-Aug-22 08:00N 39°03' E 009°16'917.9
2017-Aug-22 07:30N 38°60' E 009°26'816.7
2017-Aug-22 07:00N 39°01' E 009°37'5618.7
2017-Aug-22 04:00N 39°54' E 010°00'1918.6 330 / 171024.010.8 25.0
2017-Aug-22 03:00N 40°12' E 010°06'6622.1 010 / 181024.010.8 25.0
2017-Aug-22 00:00N 41°18' E 010°00'6622.1 030 / 151024.010.8 28.020.924.0
2017-Aug-21 21:00N 42°24' E 009°54'1023.7 360 / 101018.010.8 24.620.9
2017-Aug-21 20:33N 42°34' E 009°55'722.3
2017-Aug-21 20:15N 42°41' E 009°56'622.0
2017-Aug-21 20:00N 42°47' E 009°56'5499.5
2017-Aug-21 20:00N 42°42' E 009°54'1632.1 360 / 101018.010.8 24.620.9
2017-Aug-21 19:31N 42°57' E 009°59'1121.5
2017-Aug-21 19:00N 43°07' E 010°03'1121.4
2017-Aug-21 18:31N 43°18' E 010°07'1121.2
2017-Aug-21 18:01N 43°28' E 010°11'611.7
2017-Aug-21 17:30N 43°32' E 010°16'1 2.6
2017-Aug-21 17:00N 43°33' E 010°18'0 0.0
2017-Aug-21 16:30N 43°33' E 010°18'0 0.0
2017-Aug-21 16:00N 43°33' E 010°18'0 0.0
2017-Aug-21 15:30N 43°33' E 010°18'0 0.0
2017-Aug-21 15:00N 43°33' E 010°18'0 0.0
2017-Aug-21 14:30N 43°33' E 010°18'0 0.0
2017-Aug-21 14:00N 43°33' E 010°18'3816.9
2017-Aug-21 14:00N 43°30' E 010°18'3 6.4 290 / 171024.010.8 27.021.325.0
2017-Aug-21 13:30N 43°33' E 010°18'0 0.0
2017-Aug-21 13:00N 43°33' E 010°18'3816.9
2017-Aug-21 13:00N 43°30' E 010°18'3 5.3 290 / 171024.010.8 27.021.325.0
2017-Aug-21 12:24N 43°33' E 010°18'0 0.0
2017-Aug-21 11:54N 43°33' E 010°18'0 0.0
2017-Aug-21 11:30N 43°33' E 010°18'0 0.0
2017-Aug-21 11:00N 43°33' E 010°18'0 0.0
2017-Aug-21 10:30N 43°33' E 010°18'0 0.0
2017-Aug-21 10:00N 43°33' E 010°18'0 0.0
2017-Aug-21 09:30N 43°33' E 010°18'0 0.0
2017-Aug-21 09:00N 43°33' E 010°18'0 0.0
2017-Aug-21 08:30N 43°33' E 010°18'0 0.0
2017-Aug-21 08:00N 43°33' E 010°18'0 0.0
2017-Aug-21 07:30N 43°33' E 010°18'0 0.0
2017-Aug-21 07:00N 43°33' E 010°18'0 0.0
2017-Aug-21 06:30N 43°33' E 010°18'0 0.0
2017-Aug-21 06:00N 43°33' E 010°18'0 0.0
2017-Aug-21 05:30N 43°33' E 010°18'0 0.0
2017-Aug-21 05:00N 43°33' E 010°18'0 0.1
2017-Aug-21 04:30N 43°33' E 010°18'2 4.8
2017-Aug-21 04:00N 43°31' E 010°15'5 9.7
2017-Aug-21 03:30N 43°27' E 010°12'611.3
2017-Aug-21 03:00N 43°22' E 010°11'611.6
2017-Aug-21 02:30N 43°16' E 010°09'711.5
2017-Aug-21 01:56N 43°09' E 010°07'512.2
2017-Aug-21 01:30N 43°04' E 010°06'612.4
2017-Aug-21 01:00N 42°58' E 010°04'4297.2
2017-Aug-21 01:00N 43°00' E 010°00'1212.0 080 / 251024.027.0 25.013.925.0
2017-Aug-21 00:00N 42°48' E 010°00'1914.7 080 / 251024.027.0 25.013.925.0
2017-Aug-20 22:43N 42°34' E 010°17'312.2
2017-Aug-20 22:30N 42°32' E 010°19'612.1
2017-Aug-20 22:00N 42°27' E 010°24'612.6
2017-Aug-20 21:30N 42°22' E 010°29'1612.0
2017-Aug-20 20:08N 42°08' E 010°40'212.2
2017-Aug-20 19:59N 42°07' E 010°43'61 3.2
2017-Aug-20 01:00N 41°36' E 011°54'1318.2 240 / 151020.010.8 30.019.926.0
2017-Aug-20 00:17N 41°30' E 012°09'517.0
2017-Aug-20 00:00N 41°26' E 012°14'3406.3
2017-Aug-20 00:00N 41°24' E 012°12'816.4 120 / 61021.010.8 30.019.926.0
2017-Aug-19 23:31N 41°20' E 012°21'916.7
2017-Aug-19 23:00N 41°15' E 012°30'816.6
2017-Aug-19 22:31N 41°11' E 012°40'916.9
2017-Aug-19 22:00N 41°08' E 012°51'1216.6
2017-Aug-19 21:17N 41°03' E 013°05'516.5
2017-Aug-19 21:01N 41°01' E 013°10'3198.4
2017-Aug-19 21:00N 41°00' E 013°06'1121.9 270 / 51016.0 5.4 25.723.3
2017-Aug-19 20:31N 40°57' E 013°19'816.6
2017-Aug-19 20:01N 40°52' E 013°29'5323.9
2017-Aug-19 20:00N 40°48' E 013°24'1019.9 270 / 51016.010.8 26.824.6
2017-Aug-19 19:31N 40°47' E 013°37'816.4
2017-Aug-19 19:01N 40°41' E 013°45'816.3
2017-Aug-19 18:30N 40°37' E 013°54'816.4
2017-Aug-19 18:01N 40°39' E 014°04'3183.5
2017-Aug-19 18:00N 40°42' E 014°06'511.2 270 / 81022.0
2017-Aug-19 17:31N 40°45' E 014°12'612.4
2017-Aug-19 17:00N 40°50' E 014°16'0 0.6
2017-Aug-19 16:30N 40°50' E 014°16'0 0.0
2017-Aug-19 15:57N 40°50' E 014°16'0 0.0
2017-Aug-19 15:30N 40°50' E 014°16'4 6.9
2017-Aug-19 15:00N 40°48' E 014°12'414.9 220 / 121024.010.8 29.020.427.0
2017-Aug-19 14:45N 40°50' E 014°16'0 0.0
2017-Aug-19 13:57N 40°50' E 014°16'0 0.0
2017-Aug-19 13:27N 40°50' E 014°16'0 0.0
2017-Aug-19 13:00N 40°50' E 014°16'4304.2
2017-Aug-19 13:00N 40°48' E 014°12'4 7.3 220 / 121024.010.8 29.020.427.0
2017-Aug-19 12:30N 40°50' E 014°16'0 0.0
2017-Aug-19 12:00N 40°50' E 014°16'4304.2
2017-Aug-19 12:00N 40°48' E 014°12'4 7.3 220 / 121024.010.8 29.020.427.0
2017-Aug-19 11:30N 40°50' E 014°16'0 0.0
2017-Aug-19 11:00N 40°50' E 014°16'0 0.0
2017-Aug-19 10:27N 40°50' E 014°16'0 0.0
2017-Aug-19 10:00N 40°50' E 014°16'0 0.0
2017-Aug-19 09:15N 40°50' E 014°16'0 0.0
2017-Aug-19 08:57N 40°50' E 014°16'0 0.0
2017-Aug-19 08:30N 40°50' E 014°16'0 0.0
2017-Aug-19 08:00N 40°50' E 014°16'0 0.0
2017-Aug-19 07:30N 40°50' E 014°16'0 0.0
2017-Aug-19 07:00N 40°50' E 014°16'0 0.0
2017-Aug-19 05:18N 40°50' E 014°16'0 0.0
2017-Aug-19 05:00N 40°50' E 014°16'0 0.9
2017-Aug-19 04:30N 40°50' E 014°16'3 5.0
2017-Aug-19 04:00N 40°48' E 014°17'510.1
2017-Aug-19 03:30N 40°43' E 014°17'714.6
2017-Aug-19 03:00N 40°35' E 014°17'714.7
2017-Aug-19 02:30N 40°29' E 014°21'815.2
2017-Aug-19 02:00N 40°22' E 014°25'1415.1
2017-Aug-19 01:06N 40°09' E 014°33'214.3
2017-Aug-19 00:56N 40°07' E 014°34'614.6
2017-Aug-19 00:30N 40°02' E 014°38'714.9
2017-Aug-19 00:00N 39°55' E 014°42'161.1
2017-Aug-19 00:00N 39°54' E 014°42'713.7 180 / 51023.010.8 29.020.426.0
2017-Aug-18 23:30N 39°48' E 014°46'815.1
2017-Aug-18 23:00N 39°41' E 014°50'2243.8
2017-Aug-18 23:00N 39°42' E 014°48'1417.2 180 / 51023.010.8 29.020.426.0
2017-Aug-18 22:12N 39°30' E 014°57'315.1
2017-Aug-18 22:00N 39°27' E 014°58'815.2
2017-Aug-18 21:30N 39°21' E 015°03'815.3
2017-Aug-18 21:00N 39°14' E 015°07'815.3
2017-Aug-18 20:30N 39°07' E 015°12'815.2
2017-Aug-18 20:00N 39°00' E 015°17'191365.1
2017-Aug-18 20:00N 38°42' E 015°24'1223.9 050 / 31018.010.8 28.024.6
2017-Aug-18 19:30N 38°54' E 015°21'815.1
2017-Aug-18 19:00N 38°47' E 015°26'815.4
2017-Aug-18 18:30N 38°40' E 015°31'815.3
2017-Aug-18 18:00N 38°33' E 015°34'815.2
2017-Aug-18 17:30N 38°27' E 015°39'815.5
2017-Aug-18 17:00N 38°20' E 015°44'713.2
2017-Aug-18 16:30N 38°15' E 015°38'5 9.3
2017-Aug-18 15:59N 38°12' E 015°33'0 0.0
2017-Aug-18 15:30N 38°12' E 015°33'0 0.0
2017-Aug-18 15:00N 38°12' E 015°33'0 0.0
2017-Aug-18 14:30N 38°12' E 015°33'0 0.0
2017-Aug-18 13:24N 38°12' E 015°33'0 0.0
2017-Aug-18 08:39N 38°12' E 015°33'0 0.0
2017-Aug-18 08:24N 38°12' E 015°33'0 0.0
2017-Aug-18 08:00N 38°12' E 015°33'0 0.0
2017-Aug-18 07:30N 38°12' E 015°33'0 0.0
2017-Aug-18 06:57N 38°12' E 015°33'0 0.0
2017-Aug-18 06:30N 38°12' E 015°33'0 0.0
2017-Aug-18 05:54N 38°12' E 015°33'0 0.0
2017-Aug-18 05:30N 38°12' E 015°33'0 0.0
2017-Aug-18 05:00N 38°12' E 015°34'2 4.5
2017-Aug-18 04:30N 38°12' E 015°36'816.1
2017-Aug-18 04:01N 38°04' E 015°36'816.7
2017-Aug-18 03:31N 37°56' E 015°35'815.4
2017-Aug-18 03:01N 37°48' E 015°36'815.5
2017-Aug-18 02:30N 37°41' E 015°36'815.8
2017-Aug-18 02:00N 37°33' E 015°36'815.8
2017-Aug-18 01:30N 37°25' E 015°37'815.0
2017-Aug-18 01:00N 37°17' E 015°37'1777.6
2017-Aug-18 01:00N 37°18' E 015°36'817.2 360 / 191022.010.8 29.018.827.0
2017-Aug-18 00:30N 37°10' E 015°37'714.8
2017-Aug-18 00:00N 37°02' E 015°38'4262.9
2017-Aug-18 00:00N 37°06' E 015°36'1123.3 360 / 191022.010.8 29.018.827.0
2017-Aug-17 23:31N 36°55' E 015°38'815.2
2017-Aug-17 23:00N 36°48' E 015°34'7766.4
2017-Aug-17 23:00N 36°54' E 015°30'1327.1 360 / 131022.010.8 27.021.326.0
2017-Aug-17 22:31N 36°41' E 015°30'816.1
2017-Aug-17 22:00N 36°34' E 015°25'815.7
2017-Aug-17 21:30N 36°27' E 015°19'815.8
2017-Aug-17 21:00N 36°22' E 015°12'815.8
2017-Aug-17 20:30N 36°16' E 015°05'815.8
2017-Aug-17 20:00N 36°11' E 014°58'816.0
2017-Aug-17 19:30N 36°07' E 014°49'816.2
2017-Aug-17 19:01N 36°02' E 014°42'815.8
2017-Aug-17 18:30N 35°56' E 014°35'4 8.1
2017-Aug-17 17:59N 35°54' E 014°31'0 0.0
2017-Aug-17 17:29N 35°54' E 014°31'0 0.0
2017-Aug-17 16:56N 35°54' E 014°31'0 0.0
2017-Aug-17 15:14N 35°54' E 014°31'0 0.0
2017-Aug-17 14:59N 35°54' E 014°31'0 0.0
2017-Aug-17 14:29N 35°54' E 014°31'0 0.0
2017-Aug-17 13:56N 35°54' E 014°31'0 0.0
2017-Aug-17 13:20N 35°54' E 014°31'0 0.0
2017-Aug-17 12:59N 35°54' E 014°31'0 0.0
2017-Aug-17 12:29N 35°54' E 014°31'0 0.0
2017-Aug-17 11:53N 35°54' E 014°31'0 0.0
2017-Aug-17 11:23N 35°54' E 014°31'0 0.0
2017-Aug-17 10:59N 35°54' E 014°31'0 0.1
2017-Aug-17 09:28N 35°53' E 014°31'2 3.8
2017-Aug-17 09:00N 35°55' E 014°32'713.1
2017-Aug-17 08:30N 36°01' E 014°30'817.2
2017-Aug-17 08:01N 36°07' E 014°22'917.5
2017-Aug-17 07:30N 36°12' E 014°14'917.3
2017-Aug-17 07:00N 36°17' E 014°05'917.3
2017-Aug-17 06:30N 36°22' E 013°56'917.4
2017-Aug-17 06:01N 36°27' E 013°48'917.5
2017-Aug-17 05:31N 36°32' E 013°39'917.7
2017-Aug-17 05:01N 36°38' E 013°30'8448.4
2017-Aug-17 05:00N 36°30' E 013°30'1531.1 280 / 51024.027.0 28.020.926.0
2017-Aug-17 04:31N 36°44' E 013°22'1121.1
2017-Aug-17 04:00N 36°49' E 013°11'1121.5
2017-Aug-17 03:30N 36°55' E 012°59'1121.6
2017-Aug-17 03:00N 37°01' E 012°48'183.2
2017-Aug-17 03:00N 37°00' E 012°48'1123.1 310 / 21024.027.0 28.020.926.0
2017-Aug-17 02:30N 37°07' E 012°37'1121.6
2017-Aug-17 02:00N 37°14' E 012°26'1020.9
2017-Aug-17 01:31N 37°20' E 012°16'1120.8
2017-Aug-17 01:00N 37°27' E 012°06'3390.9
2017-Aug-17 01:00N 37°24' E 012°06'1224.7 060 / 101023.027.0 29.018.829.0
2017-Aug-17 00:30N 37°32' E 011°55'1121.0
2017-Aug-17 00:00N 37°36' E 011°42'921.9 130 / 101024.027.0 29.018.829.0
2017-Aug-16 23:34N 37°43' E 011°35'220.9
2017-Aug-16 23:29N 37°44' E 011°33'1020.9
2017-Aug-16 23:00N 37°50' E 011°23'2272.3
2017-Aug-16 23:00N 37°48' E 011°24'1325.7 050 / 91024.027.0 29.020.426.0
2017-Aug-16 22:30N 37°56' E 011°12'1120.9
2017-Aug-16 21:58N 38°03' E 011°01'1020.9
2017-Aug-16 21:31N 38°09' E 010°51'1223.7
2017-Aug-16 21:00N 38°12' E 010°36'571.0 140 / 51018.010.8 26.021.7
2017-Aug-16 20:55N 38°16' E 010°39'1020.7
2017-Aug-16 20:27N 38°22' E 010°29'2120.5
2017-Aug-16 19:27N 38°35' E 010°08'1120.2
2017-Aug-16 18:54N 38°41' E 009°56'920.5
2017-Aug-16 18:29N 38°46' E 009°47'1020.5
2017-Aug-16 18:00N 38°52' E 009°37'6386.7
2017-Aug-16 18:00N 38°54' E 009°30'510.0 150 / 71024.0
2017-Aug-16 17:30N 38°58' E 009°26'1020.9
2017-Aug-16 17:00N 39°04' E 009°16'816.7
2017-Aug-16 16:30N 39°09' E 009°07'3 6.4
2017-Aug-16 15:59N 39°13' E 009°06'0 0.0
2017-Aug-16 15:29N 39°13' E 009°06'0 0.0
2017-Aug-16 14:59N 39°13' E 009°06'0 0.0
2017-Aug-16 14:29N 39°13' E 009°06'0 0.0
2017-Aug-16 13:59N 39°13' E 009°06'0 0.0
2017-Aug-16 13:29N 39°13' E 009°06'0 0.0
2017-Aug-16 12:59N 39°12' E 009°06'0 0.0
2017-Aug-16 12:29N 39°12' E 009°06'0 0.0
2017-Aug-16 11:59N 39°13' E 009°06'0 0.0
2017-Aug-16 11:29N 39°13' E 009°06'0 0.0
2017-Aug-16 10:59N 39°13' E 009°06'0 0.0
2017-Aug-16 10:29N 39°13' E 009°06'0 0.0
2017-Aug-16 09:59N 39°13' E 009°06'0 0.0
2017-Aug-16 09:29N 39°13' E 009°06'0 0.0
2017-Aug-16 08:59N 39°13' E 009°06'0 0.0
2017-Aug-16 08:29N 39°13' E 009°06'0 0.0
2017-Aug-16 07:59N 39°13' E 009°06'0 0.0
2017-Aug-16 07:29N 39°12' E 009°06'1 1.1
2017-Aug-16 07:00N 39°12' E 009°07'4 7.8
2017-Aug-16 06:30N 39°08' E 009°07'917.3
2017-Aug-16 06:00N 38°60' E 009°08'1020.3
2017-Aug-16 05:30N 38°52' E 008°60'1020.1
2017-Aug-16 05:00N 38°45' E 008°50'1220.1
2017-Aug-16 04:26N 38°43' E 008°35'920.4
2017-Aug-16 04:00N 38°42' E 008°24'1320.6
2017-Aug-16 03:22N 38°41' E 008°07'1231.8
2017-Aug-16 03:00N 38°36' E 007°54'819.1 090 / 171024.010.8 25.022.226.0
2017-Aug-16 02:34N 38°42' E 007°46'120.2
2017-Aug-16 02:30N 38°42' E 007°45'2616.9
2017-Aug-16 01:00N 38°42' E 007°12'2323.4 090 / 211025.010.8 29.020.426.0
2017-Aug-16 00:00N 38°42' E 006°42'2123.1 090 / 211025.010.8 29.020.426.0
2017-Aug-15 23:05N 38°48' E 006°16'112.6
2017-Aug-15 23:00N 38°48' E 006°18'3372.5 090 / 211024.010.8 29.020.426.0
2017-Aug-15 22:59N 38°48' E 006°14'919.8
2017-Aug-15 22:30N 38°49' E 006°02'1019.9
2017-Aug-15 22:01N 38°50' E 005°49'1019.9
2017-Aug-15 21:30N 38°51' E 005°36'1020.1
2017-Aug-15 21:00N 38°52' E 005°23'6393.9
2017-Aug-15 21:00N 38°48' E 005°18'815.5 090 / 201018.0 2.2 26.525.8
2017-Aug-15 20:30N 38°53' E 005°10'1020.5
2017-Aug-15 20:00N 38°54' E 004°57'1020.7
2017-Aug-15 19:30N 38°54' E 004°44'1020.5
2017-Aug-15 19:00N 38°55' E 004°31'1020.5
2017-Aug-15 18:30N 38°56' E 004°18'1020.7
2017-Aug-15 18:00N 38°57' E 004°05'1020.7
2017-Aug-15 17:30N 38°58' E 003°51'1020.7
2017-Aug-15 17:00N 38°59' E 003°38'8506.2
2017-Aug-15 17:00N 38°54' E 003°30'714.5 090 / 201023.010.8 27.0
2017-Aug-15 16:30N 38°60' E 003°25'1020.4
2017-Aug-15 16:01N 39°01' E 003°12'145.3
2017-Aug-15 16:00N 39°00' E 003°12'1021.3 090 / 191023.010.8 27.0
2017-Aug-15 15:30N 39°02' E 002°59'918.9
2017-Aug-15 15:00N 39°07' E 002°49'1020.2
2017-Aug-15 14:30N 39°16' E 002°44'1019.7
2017-Aug-15 14:00N 39°26' E 002°40'815.6
2017-Aug-15 13:30N 39°33' E 002°39'1 1.8
2017-Aug-15 13:00N 39°33' E 002°38'0 0.0
2017-Aug-15 12:30N 39°33' E 002°38'0 0.0
2017-Aug-15 12:00N 39°33' E 002°38'0 0.0
2017-Aug-15 11:30N 39°33' E 002°38'0 0.0
2017-Aug-15 11:00N 39°33' E 002°38'0 0.0
2017-Aug-15 10:30N 39°33' E 002°38'0 0.0
2017-Aug-15 10:00N 39°33' E 002°38'0 0.0
2017-Aug-15 09:30N 39°33' E 002°38'0 0.0
2017-Aug-15 09:00N 39°33' E 002°38'0 0.0
2017-Aug-15 08:30N 39°33' E 002°38'0 0.0
2017-Aug-15 08:00N 39°33' E 002°38'0 0.0
2017-Aug-15 07:30N 39°33' E 002°38'0 0.0
2017-Aug-15 07:00N 39°33' E 002°38'0 0.0
2017-Aug-15 06:30N 39°33' E 002°38'0 0.0
2017-Aug-15 06:00N 39°33' E 002°38'0 0.0
2017-Aug-15 05:30N 39°33' E 002°38'1 2.0
2017-Aug-15 05:00N 39°32' E 002°39'611.6
2017-Aug-15 04:30N 39°27' E 002°35'611.7
2017-Aug-15 04:00N 39°24' E 002°28'611.2
2017-Aug-15 03:30N 39°26' E 002°21'510.9
2017-Aug-15 03:00N 39°29' E 002°16'6629.1
2017-Aug-15 03:00N 39°24' E 002°12'1019.9 050 / 121023.010.8 29.018.827.0
2017-Aug-15 02:30N 39°34' E 002°11'611.8
2017-Aug-15 02:00N 39°40' E 002°11'5336.6
2017-Aug-15 02:00N 39°36' E 002°06'1021.2 180 / 181023.010.8 29.018.827.0
2017-Aug-15 01:30N 39°46' E 002°11'612.0
2017-Aug-15 01:00N 39°52' E 002°11'5522.9
2017-Aug-15 01:00N 39°48' E 002°06'1020.9 180 / 211024.010.8 29.018.827.0
2017-Aug-15 00:30N 39°58' E 002°11'713.8
2017-Aug-15 00:00N 40°04' E 002°11'7478.4
2017-Aug-15 00:00N 40°00' E 002°18'1224.9 100 / 181020.010.8 29.020.426.0
2017-Aug-14 23:30N 40°11' E 002°11'611.4
2017-Aug-14 23:00N 40°17' E 002°10'6534.9
2017-Aug-14 23:00N 40°12' E 002°06'1122.2 100 / 181020.010.8 29.020.426.0
2017-Aug-14 22:30N 40°22' E 002°11'611.9
2017-Aug-14 22:00N 40°28' E 002°11'612.3
2017-Aug-14 21:30N 40°34' E 002°10'712.9
2017-Aug-14 21:00N 40°41' E 002°10'713.3
2017-Aug-14 20:30N 40°48' E 002°10'612.5
2017-Aug-14 20:00N 40°54' E 002°08'2567.3
2017-Aug-14 20:00N 40°54' E 002°06'612.6 100 / 101020.010.8 26.021.7
2017-Aug-14 19:30N 40°60' E 002°08'612.4
2017-Aug-14 19:00N 41°06' E 002°09'2152.6
2017-Aug-14 19:00N 41°06' E 002°06'714.6 100 / 101020.010.8 26.023.2
2017-Aug-14 18:30N 41°12' E 002°10'611.8
2017-Aug-14 18:00N 41°18' E 002°10'3 2.4
2017-Aug-14 16:36N 41°22' E 002°11'0 0.0
2017-Aug-14 16:30N 41°22' E 002°11'0 0.0
2017-Aug-14 15:54N 41°22' E 002°11'0 0.0
2017-Aug-14 15:24N 41°22' E 002°11'0 0.0
2017-Aug-14 13:48N 41°22' E 002°11'0 0.0
2017-Aug-14 13:30N 41°22' E 002°11'0 0.0
2017-Aug-14 13:00N 41°22' E 002°11'0 0.0
2017-Aug-14 12:24N 41°22' E 002°11'0 0.0
2017-Aug-14 11:06N 41°22' E 002°11'0 0.0
2017-Aug-14 10:48N 41°22' E 002°11'0 0.0
2017-Aug-14 10:30N 41°22' E 002°11'0 0.0
2017-Aug-14 09:48N 41°22' E 002°11'0 0.0
2017-Aug-14 09:18N 41°22' E 002°11'0 0.0
2017-Aug-14 08:54N 41°22' E 002°11'0 0.0
2017-Aug-14 08:24N 41°22' E 002°11'0 0.0
2017-Aug-14 08:00N 41°22' E 002°11'0 0.0
2017-Aug-14 07:30N 41°22' E 002°11'0 0.0
2017-Aug-14 07:00N 41°22' E 002°11'0 0.0
2017-Aug-14 06:30N 41°22' E 002°11'0 0.0
2017-Aug-14 05:48N 41°22' E 002°11'0 0.0
2017-Aug-14 05:24N 41°22' E 002°11'0 0.0
2017-Aug-14 04:54N 41°22' E 002°11'0 0.4
2017-Aug-14 04:30N 41°22' E 002°11'3 6.3
2017-Aug-14 03:58N 41°18' E 002°11'611.7
2017-Aug-14 03:30N 41°18' E 002°18'816.9
2017-Aug-14 03:00N 41°23' E 002°27'916.9
2017-Aug-14 02:30N 41°27' E 002°37'816.3
2017-Aug-14 02:00N 41°32' E 002°46'816.1
2017-Aug-14 01:30N 41°36' E 002°55'816.3
2017-Aug-14 01:00N 41°41' E 003°05'61205.2
2017-Aug-14 01:00N 41°36' E 003°00'1327.4 200 / 131024.027.0 29.020.426.0
2017-Aug-14 00:30N 41°45' E 003°13'815.6
2017-Aug-14 00:00N 41°49' E 003°22'8700.3
2017-Aug-14 00:00N 41°42' E 003°18'1429.3 190 / 41024.010.8 28.020.926.0
2017-Aug-13 23:30N 41°53' E 003°30'816.2
2017-Aug-13 23:00N 41°59' E 003°38'8521.1
2017-Aug-13 23:00N 41°54' E 003°30'1734.7 200 / 131021.027.0 29.020.426.0
2017-Aug-13 22:30N 42°05' E 003°47'917.7
2017-Aug-13 22:00N 42°12' E 003°55'917.3
2017-Aug-13 21:30N 42°18' E 004°03'917.5
2017-Aug-13 21:00N 42°25' E 004°11'151016.2
2017-Aug-13 21:00N 42°36' E 004°24'613.0 200 / 101018.010.8 24.019.618.0
2017-Aug-13 20:30N 42°31' E 004°19'917.6
2017-Aug-13 20:00N 42°37' E 004°27'15946.5
2017-Aug-13 20:00N 42°48' E 004°42'613.2 200 / 101018.010.8 24.019.6
2017-Aug-13 19:30N 42°44' E 004°36'917.2
2017-Aug-13 19:01N 42°50' E 004°44'917.0
2017-Aug-13 18:30N 42°56' E 004°52'917.1
2017-Aug-13 18:00N 43°02' E 004°59'917.4
2017-Aug-13 17:30N 43°09' E 005°07'817.0
2017-Aug-13 17:01N 43°17' E 005°11'713.0
2017-Aug-13 16:30N 43°21' E 005°18'2 3.1
2017-Aug-13 16:00N 43°21' E 005°20'0 0.0
2017-Aug-13 15:30N 43°21' E 005°20'0 0.0
2017-Aug-13 14:57N 43°21' E 005°20'0 0.0
2017-Aug-13 14:30N 43°21' E 005°20'0 0.0
2017-Aug-13 14:00N 43°21' E 005°20'0 0.0
2017-Aug-13 13:30N 43°21' E 005°20'0 0.0
2017-Aug-13 13:00N 43°21' E 005°20'0 0.0
2017-Aug-13 12:27N 43°21' E 005°20'0 0.0
2017-Aug-13 12:00N 43°21' E 005°20'0 0.0
2017-Aug-13 11:30N 43°21' E 005°20'0 0.0
2017-Aug-13 11:00N 43°21' E 005°20'0 0.0
2017-Aug-13 10:30N 43°21' E 005°20'0 0.0
2017-Aug-13 10:00N 43°21' E 005°20'0 0.0
2017-Aug-13 09:30N 43°21' E 005°20'0 0.0
2017-Aug-13 09:00N 43°21' E 005°20'0 0.0
2017-Aug-13 08:30N 43°21' E 005°20'0 0.0
2017-Aug-13 08:00N 43°21' E 005°20'0 0.0
2017-Aug-13 07:30N 43°21' E 005°20'0 0.0
2017-Aug-13 07:00N 43°21' E 005°20'0 0.0
2017-Aug-13 06:27N 43°21' E 005°20'0 0.0
2017-Aug-13 06:00N 43°21' E 005°20'0 0.0
2017-Aug-13 05:30N 43°21' E 005°20'1 1.3
2017-Aug-13 05:00N 43°21' E 005°19'5 9.4
2017-Aug-13 04:30N 43°18' E 005°14'611.5
2017-Aug-13 04:00N 43°13' E 005°11'8494.6
2017-Aug-13 04:00N 43°06' E 005°06'612.0 340 / 191022.010.8 19.2 18.0
2017-Aug-13 03:30N 43°07' E 005°14'613.1
2017-Aug-13 03:00N 43°01' E 005°18'5282.1
2017-Aug-13 03:00N 43°00' E 005°12'1019.9 330 / 241022.010.8 19.2 18.0
2017-Aug-13 02:30N 42°56' E 005°24'1112.1
2017-Aug-13 01:33N 42°52' E 005°39'111.7
2017-Aug-13 01:30N 42°52' E 005°39'611.6
2017-Aug-13 01:00N 42°50' E 005°47'611.3
2017-Aug-13 00:30N 42°48' E 005°54'916.6
2017-Aug-13 00:00N 42°48' E 006°06'2 6.2 270 / 191020.010.8 29.020.427.0
2017-Aug-12 23:41N 42°46' E 006°07'311.5
2017-Aug-12 23:25N 42°46' E 006°11'511.5
2017-Aug-12 23:00N 42°46' E 006°18'611.5
2017-Aug-12 22:30N 42°47' E 006°26'611.0
2017-Aug-12 21:56N 42°49' E 006°34'711.4
2017-Aug-12 21:21N 42°55' E 006°38'411.2
2017-Aug-12 21:00N 42°58' E 006°41'611.3
2017-Aug-12 20:30N 43°03' E 006°45'611.4
2017-Aug-12 19:59N 43°08' E 006°48'511.4
2017-Aug-12 19:30N 43°13' E 006°51'611.7
2017-Aug-12 19:00N 43°18' E 006°55'611.6
2017-Aug-12 18:30N 43°24' E 006°57'  

Dump ship's entire track history